Time;durP1;ratioP1;P1;durP2;ratioP2;P2;SDS_P1;SDS_P2;PMS_P1;PMS_P2;Temp;Humidity;BMP_temperature;BMP_pressure;BME280_temperature;BME280_humidity;BME280_pressure;Samples;Min_cycle;Max_cycle;Signal;HPM_P1;HPM_P2
2023/07/07 00:00:26;;;;;;;18.97;6.80;;;;;;;11.43;100.00;96496.19;7411616;19;20467;-93
2023/07/07 00:02:53;;;;;;;12.33;6.83;;;;;;;11.92;100.00;96565.22;7411031;19;20384;-92
2023/07/07 00:05:20;;;;;;;9.93;5.50;;;;;;;9.48;100.00;96200.06;7411818;19;20401;-93
2023/07/07 00:07:48;;;;;;;14.97;7.23;;;;;;;9.71;100.00;96255.97;7409938;19;20416;-93
2023/07/07 00:10:16;;;;;;;11.67;7.97;;;;;;;9.92;100.00;96299.00;7412370;19;21075;-93
2023/07/07 00:12:44;;;;;;;14.30;7.30;;;;;;;11.09;100.00;96445.16;7409641;19;20394;-92
2023/07/07 00:15:11;;;;;;;14.27;6.90;;;;;;;11.94;100.00;96561.13;7412399;19;20389;-92
2023/07/07 00:17:41;;;;;;;14.30;7.60;;;;;;;11.17;100.00;96441.63;7434173;19;20571;-94
2023/07/07 00:20:14;;;;;;;12.67;6.33;;;;;;;12.21;100.00;96569.56;7444736;19;20400;-93
2023/07/07 00:22:41;;;;;;;13.93;7.17;;;;;;;10.87;100.00;96397.88;7444188;19;20368;-93
2023/07/07 00:25:09;;;;;;;7.07;6.10;;;;;;;12.45;100.00;96619.19;7445385;19;20457;-93
2023/07/07 00:27:37;;;;;;;10.37;5.97;;;;;;;11.69;100.00;96527.69;7443074;19;20481;-93
2023/07/07 00:30:05;;;;;;;9.90;6.60;;;;;;;11.60;100.00;96519.84;7432038;19;20446;-92
2023/07/07 00:32:33;;;;;;;16.03;7.00;;;;;;;10.92;100.00;96463.81;7410941;19;20409;-92
2023/07/07 00:35:02;;;;;;;8.90;5.33;;;;;;;10.60;100.00;96429.06;7412442;19;20400;-92
2023/07/07 00:37:29;;;;;;;13.27;6.37;;;;;;;9.68;100.00;96294.34;7408189;19;20456;-92
2023/07/07 00:39:56;;;;;;;13.73;5.93;;;;;;;10.16;100.00;96376.84;7411881;19;20413;-92
2023/07/07 00:42:23;;;;;;;18.53;6.30;;;;;;;10.54;100.00;96398.63;7411988;19;20453;-92
2023/07/07 00:45:12;;;;;;;21.13;6.17;;;;;;;12.04;100.00;96618.25;7413097;19;20381;-92
2023/07/07 00:47:52;;;;;;;11.50;4.77;;;;;;;10.35;100.00;96356.03;7409359;19;20988;-92
2023/07/07 00:50:21;;;;;;;17.37;5.70;;;;;;;10.44;100.00;96420.19;7409505;19;20390;-92
2023/07/07 00:52:49;;;;;;;14.20;6.17;;;;;;;10.77;100.00;96443.25;7411435;19;20391;-92
2023/07/07 00:55:24;;;;;;;15.93;7.00;;;;;;;10.84;100.00;96481.31;7409762;19;20448;-92
2023/07/07 00:57:53;;;;;;;13.87;5.93;;;;;;;10.75;100.00;96456.03;7408417;19;20436;-92
2023/07/07 01:00:21;;;;;;;15.70;6.23;;;;;;;11.11;100.00;96490.59;7407847;19;20370;-92
2023/07/07 01:02:54;;;;;;;16.17;6.10;;;;;;;11.24;100.00;96510.69;7408419;19;20919;-92
2023/07/07 01:05:25;;;;;;;13.40;5.80;;;;;;;9.28;100.00;96274.72;7413600;19;20383;-92
2023/07/07 01:07:53;;;;;;;12.37;5.70;;;;;;;9.24;100.00;96287.00;7404877;19;20428;-92
2023/07/07 01:10:20;;;;;;;10.60;5.10;;;;;;;9.42;100.00;96318.25;7402602;19;20396;-91
2023/07/07 01:12:49;;;;;;;12.27;6.10;;;;;;;11.22;100.00;96621.41;7401805;19;20400;-92
2023/07/07 01:15:17;;;;;;;13.50;7.07;;;;;;;9.86;100.00;96424.38;7402628;19;20389;-92
2023/07/07 01:17:50;;;;;;;17.93;6.33;;;;;;;9.77;100.00;96421.81;7400623;19;20448;-92
2023/07/07 01:20:17;;;;;;;7.60;5.90;;;;;;;11.15;100.00;96639.66;7405147;19;20393;-92
2023/07/07 01:23:06;;;;;;;7.10;6.10;;;;;;;11.08;100.00;96643.91;7401942;19;20465;-92
2023/07/07 01:25:49;;;;;;;11.53;6.23;;;;;;;10.58;100.00;96634.84;7402472;19;20397;-92
2023/07/07 01:28:53;;;;;;;8.00;6.47;;;;;;;10.74;100.00;96629.81;7402142;19;20421;-92
2023/07/07 01:31:34;;;;;;;8.23;6.67;;;;;;;9.64;100.00;96441.28;7408175;19;20482;-93
2023/07/07 01:34:02;;;;;;;7.97;7.17;;;;;;;9.96;100.00;96495.34;7422168;19;20949;-91
2023/07/07 01:36:29;;;;;;;10.60;7.17;;;;;;;9.83;100.00;96451.44;7407376;19;20732;-92
2023/07/07 01:38:58;;;;;;;7.90;6.90;;;;;;;9.53;100.00;96400.47;7405246;19;20386;-92
2023/07/07 01:41:32;;;;;;;10.03;6.73;;;;;;;10.70;100.00;96585.81;7406228;19;20398;-92
2023/07/07 01:44:21;;;;;;;11.27;6.97;;;;;;;11.06;100.00;96635.53;7404076;19;20392;-92
2023/07/07 01:47:10;;;;;;;8.27;6.10;;;;;;;11.20;100.00;96631.53;7415368;19;20370;-92
2023/07/07 01:49:48;;;;;;;9.73;6.23;;;;;;;10.63;100.00;96539.47;7405546;19;20385;-92
2023/07/07 01:52:30;;;;;;;6.60;5.17;;;;;;;10.87;100.00;96583.06;7413487;19;20384;-92
2023/07/07 01:55:04;;;;;;;14.80;8.07;;;;;;;11.08;100.00;96626.16;7406178;19;20375;-92
2023/07/07 01:57:34;;;;;;;8.67;6.47;;;;;;;10.48;100.00;96558.53;7412890;19;20432;-92
2023/07/07 02:00:02;;;;;;;21.77;6.40;;;;;;;10.73;100.00;96630.91;7407436;19;20464;-92
2023/07/07 02:02:42;;;;;;;12.70;6.70;;;;;;;10.03;100.00;96522.03;7412013;19;20728;-92
2023/07/07 02:05:11;;;;;;;16.40;7.83;;;;;;;9.32;100.00;96431.28;7410552;19;20396;-91
2023/07/07 02:07:40;;;;;;;19.00;7.47;;;;;;;9.71;100.00;96449.47;7408727;19;20910;-92
2023/07/07 02:10:08;;;;;;;20.40;6.93;;;;;;;9.79;100.00;96471.66;7412159;19;20388;-92
2023/07/07 02:12:36;;;;;;;20.00;6.83;;;;;;;8.87;100.00;96424.53;7409553;19;20392;-92
2023/07/07 02:15:03;;;;;;;20.67;7.97;;;;;;;9.47;100.00;96513.34;7400762;19;20401;-92
2023/07/07 02:17:30;;;;;;;18.43;7.30;;;;;;;8.91;100.00;96418.63;7399029;19;20515;-92
2023/07/07 02:19:58;;;;;;;22.97;7.50;;;;;;;10.40;100.00;96635.22;7400966;19;20398;-92
2023/07/07 02:22:25;;;;;;;37.17;8.70;;;;;;;7.89;100.00;96269.00;7399505;19;20448;-92
2023/07/07 02:24:56;;;;;;;30.73;8.70;;;;;;;9.54;100.00;96507.59;7399798;19;20406;-92
2023/07/07 02:27:23;;;;;;;27.20;8.43;;;;;;;9.31;100.00;96461.38;7399222;19;21031;-92
2023/07/07 02:29:50;;;;;;;35.03;8.60;;;;;;;9.55;100.00;96500.47;7401135;19;20396;-92
2023/07/07 02:32:17;;;;;;;24.57;7.73;;;;;;;8.06;100.00;96292.69;7398841;19;20417;-92
2023/07/07 02:34:47;;;;;;;18.83;7.80;;;;;;;8.65;100.00;96419.44;7400526;19;20393;-92
2023/07/07 02:37:16;;;;;;;26.73;8.83;;;;;;;9.02;100.00;96494.47;7398434;19;20436;-92
2023/07/07 02:39:44;;;;;;;17.37;9.17;;;;;;;10.13;100.00;96644.28;7400085;19;20904;-93
2023/07/07 02:42:12;;;;;;;25.57;7.50;;;;;;;10.10;100.00;96600.78;7398976;19;20393;-93
2023/07/07 02:44:40;;;;;;;31.83;8.90;;;;;;;9.44;100.00;96479.66;7401252;19;20468;-92
2023/07/07 02:47:08;;;;;;;23.77;7.57;;;;;;;10.06;100.00;96611.22;7396300;19;20428;-92
2023/07/07 02:49:35;;;;;;;34.90;8.87;;;;;;;9.61;100.00;96560.66;7399872;19;20400;-92
2023/07/07 02:52:04;;;;;;;27.43;8.23;;;;;;;9.43;100.00;96556.53;7399963;19;20392;-92
2023/07/07 02:54:31;;;;;;;16.63;8.07;;;;;;;9.59;100.00;96539.09;7401803;19;20395;-92
2023/07/07 02:57:02;;;;;;;20.43;9.23;;;;;;;10.48;100.00;96648.41;7398413;19;20812;-92
2023/07/07 02:59:29;;;;;;;17.33;8.30;;;;;;;8.93;100.00;96504.25;7400122;19;20403;-92
2023/07/07 03:01:56;;;;;;;30.83;9.73;;;;;;;8.87;100.00;96439.59;7400526;19;20458;-91
2023/07/07 03:04:24;;;;;;;35.70;11.70;;;;;;;9.66;100.00;96567.66;7396621;19;20396;-92
2023/07/07 03:06:52;;;;;;;27.10;10.70;;;;;;;9.26;100.00;96493.22;7398963;19;20491;-92
2023/07/07 03:09:20;;;;;;;35.27;11.40;;;;;;;10.49;100.00;96662.41;7397120;19;20389;-92
2023/07/07 03:11:47;;;;;;;33.80;8.77;;;;;;;9.79;100.00;96614.25;7397949;19;20396;-91
2023/07/07 03:14:19;;;;;;;33.27;8.63;;;;;;;9.26;100.00;96552.03;7396185;19;20384;-92
2023/07/07 03:16:51;;;;;;;34.33;9.47;;;;;;;9.48;100.00;96574.81;7399534;19;20385;-91
2023/07/07 03:19:26;;;;;;;40.33;8.83;;;;;;;9.43;100.00;96554.66;7396882;19;20792;-91
2023/07/07 03:22:03;;;;;;;42.80;12.70;;;;;;;8.57;100.00;96423.63;7400459;19;20381;-92
2023/07/07 03:24:40;;;;;;;39.83;11.87;;;;;;;9.68;100.00;96620.94;7398905;19;20371;-92
2023/07/07 03:27:17;;;;;;;34.50;11.40;;;;;;;9.22;100.00;96526.59;7399524;19;20504;-92
2023/07/07 03:29:44;;;;;;;33.60;9.80;;;;;;;9.06;100.00;96518.38;7399128;19;20752;-92
2023/07/07 03:32:14;;;;;;;42.80;12.40;;;;;;;9.10;100.00;96535.13;7395151;19;20748;-92
2023/07/07 03:34:43;;;;;;;36.07;9.83;;;;;;;10.08;100.00;96677.72;7403584;19;20388;-90
2023/07/07 03:37:12;;;;;;;28.70;8.37;;;;;;;10.14;100.00;96680.97;7411986;19;20409;-90
2023/07/07 03:39:39;;;;;;;37.97;9.00;;;;;;;8.37;100.00;96421.59;7400908;19;20389;-90
2023/07/07 03:42:08;;;;;;;30.47;9.87;;;;;;;9.17;100.00;96559.16;7409085;19;20399;-91
2023/07/07 03:44:36;;;;;;;27.70;9.40;;;;;;;9.39;100.00;96658.50;7407707;19;20457;-90
2023/07/07 03:47:04;;;;;;;35.90;11.00;;;;;;;7.83;100.00;96389.44;7396887;19;20400;-90
2023/07/07 03:49:31;;;;;;;49.13;9.67;;;;;;;9.14;100.00;96610.69;7399467;19;20463;-90
2023/07/07 03:51:58;;;;;;;29.43;8.23;;;;;;;9.63;100.00;96660.69;7398131;19;20420;-90
2023/07/07 03:54:26;;;;;;;34.13;9.60;;;;;;;9.60;100.00;96650.75;7399004;19;20407;-91
2023/07/07 03:56:53;;;;;;;29.27;8.20;;;;;;;8.59;100.00;96484.72;7398403;19;20413;-91
2023/07/07 03:59:20;;;;;;;36.33;9.60;;;;;;;9.28;100.00;96594.72;7398624;19;20409;-91
2023/07/07 04:01:49;;;;;;;45.63;9.80;;;;;;;9.22;100.00;96559.03;7397908;19;20946;-91
2023/07/07 04:04:16;;;;;;;30.97;10.43;;;;;;;8.95;100.00;96531.09;7399516;19;20389;-91
2023/07/07 04:06:43;;;;;;;38.03;9.20;;;;;;;9.04;100.00;96597.81;7399131;19;20400;-91
2023/07/07 04:09:10;;;;;;;24.67;7.77;;;;;;;9.63;100.00;96635.06;7396236;19;20403;-91
2023/07/07 04:11:37;;;;;;;23.37;8.53;;;;;;;8.56;100.00;96435.28;7398750;19;20448;-91
2023/07/07 04:14:04;;;;;;;24.57;9.10;;;;;;;10.43;100.00;96703.34;7396430;19;20388;-90
2023/07/07 04:16:31;;;;;;;23.87;9.20;;;;;;;10.19;100.00;96666.84;7397076;19;20391;-90
2023/07/07 04:18:59;;;;;;;22.33;7.80;;;;;;;10.18;100.00;96639.63;7395004;19;20349;-90
2023/07/07 04:21:27;;;;;;;28.17;8.80;;;;;;;10.49;100.00;96660.53;7396010;19;20412;-90
2023/07/07 04:23:56;;;;;;;22.43;8.90;;;;;;;10.20;100.00;96650.66;7394276;19;20884;-90
2023/07/07 04:26:26;;;;;;;15.90;7.30;;;;;;;10.23;100.00;96639.47;7396480;19;20409;-90
2023/07/07 04:28:54;;;;;;;20.03;8.50;;;;;;;9.70;100.00;96560.66;7393534;19;20511;-90
2023/07/07 04:31:23;;;;;;;29.70;17.77;;;;;;;9.47;100.00;96515.97;7393275;19;20372;-90
2023/07/07 04:33:51;;;;;;;26.63;16.17;;;;;;;10.38;100.00;96601.19;7394844;19;20408;-90
2023/07/07 04:36:19;;;;;;;19.23;10.60;;;;;;;10.84;100.00;96673.63;7397651;19;20368;-90
2023/07/07 04:38:46;;;;;;;14.77;8.40;;;;;;;9.81;100.00;96538.13;7394072;19;20428;-90
2023/07/07 04:41:14;;;;;;;13.83;7.97;;;;;;;10.74;100.00;96629.81;7398457;19;20373;-90
2023/07/07 04:43:45;;;;;;;9.20;6.73;;;;;;;10.99;100.00;96633.41;7401797;19;20397;-90
2023/07/07 04:46:16;;;;;;;9.10;6.40;;;;;;;10.64;100.00;96543.66;7401933;19;20745;-90
2023/07/07 04:48:43;;;;;;;6.57;5.87;;;;;;;10.73;100.00;96540.97;7401496;19;20455;-90
2023/07/07 04:51:12;;;;;;;7.90;5.60;;;;;;;11.82;100.00;96670.50;7404481;19;20841;-90
2023/07/07 04:53:40;;;;;;;10.80;5.07;;;;;;;12.18;100.00;96726.63;7403001;19;20398;-90
2023/07/07 04:56:09;;;;;;;5.50;5.03;;;;;;;12.53;100.00;96733.13;7403714;19;20377;-90
2023/07/07 04:58:38;;;;;;;6.23;5.63;;;;;;;12.11;100.00;96669.59;7399887;19;20466;-90
2023/07/07 05:01:16;;;;;;;8.37;5.53;;;;;;;12.43;100.00;96707.81;7401617;19;20388;-90
2023/07/07 05:03:44;;;;;;;5.87;5.30;;;;;;;12.50;100.00;96704.59;7404412;19;20369;-89
2023/07/07 05:06:12;;;;;;;10.30;5.80;;;;;;;12.17;100.00;96656.16;7404500;19;20396;-90
2023/07/07 05:08:41;;;;;;;6.60;5.77;;;;;;;13.11;100.00;96741.06;7404584;19;20428;-90
2023/07/07 05:11:14;;;;;;;7.60;6.67;;;;;;;12.29;100.00;96566.03;7408936;19;20385;-90
2023/07/07 05:13:49;;;;;;;8.70;5.90;;;;;;;13.50;100.00;96747.59;7409453;19;20404;-90
2023/07/07 05:16:21;;;;;;;9.37;7.10;;;;;;;13.42;100.00;96749.25;7408870;19;20390;-90
2023/07/07 05:18:49;;;;;;;7.33;6.63;;;;;;;13.19;100.00;96705.66;7405648;19;20443;-90
2023/07/07 05:21:20;;;;;;;8.30;7.50;;;;;;;13.25;100.00;96729.03;7409839;19;20392;-90
2023/07/07 05:23:51;;;;;;;7.60;6.90;;;;;;;12.88;100.00;96728.22;7410179;19;20392;-91
2023/07/07 05:26:29;;;;;;;7.80;6.30;;;;;;;13.29;100.00;96753.81;7409671;19;20451;-91
2023/07/07 05:29:00;;;;;;;8.47;7.60;;;;;;;13.43;100.00;96753.47;7406271;19;20394;-91
2023/07/07 05:31:27;;;;;;;7.70;7.00;;;;;;;13.81;100.00;96741.66;7403546;19;20384;-91
2023/07/07 05:33:54;;;;;;;8.50;7.20;;;;;;;13.26;100.00;96632.31;7401001;19;20401;-91
2023/07/07 05:36:21;;;;;;;7.50;6.87;;;;;;;13.55;100.00;96679.06;7412880;19;20377;-92
2023/07/07 05:38:49;;;;;;;7.57;6.73;;;;;;;14.13;100.00;96753.19;7401893;19;20405;-91
2023/07/07 05:41:17;;;;;;;7.63;7.03;;;;;;;14.15;100.00;96750.94;7404729;19;20361;-91
2023/07/07 05:43:44;;;;;;;7.60;6.90;;;;;;;14.27;100.00;96740.25;7404250;19;20436;-92
2023/07/07 05:46:13;;;;;;;7.93;7.13;;;;;;;14.49;100.00;96757.59;7403817;19;21131;-91
2023/07/07 05:48:42;;;;;;;10.87;7.90;;;;;;;14.53;100.00;96766.44;7403624;19;20405;-87
2023/07/07 05:51:12;;;;;;;7.53;6.80;;;;;;;14.47;100.00;96759.84;7407657;19;20411;-87
2023/07/07 05:53:43;;;;;;;8.13;7.37;;;;;;;14.34;100.00;96713.09;7401749;19;20404;-89
2023/07/07 05:56:18;;;;;;;9.00;7.80;;;;;;;14.90;100.00;96763.59;7403118;19;20742;-88
2023/07/07 05:58:45;;;;;;;7.70;6.93;;;;;;;15.24;100.00;96772.78;7400861;19;20457;-89
2023/07/07 06:01:13;;;;;;;6.43;5.83;;;;;;;14.20;100.00;96575.97;7401331;19;20456;-89
2023/07/07 06:03:42;;;;;;;6.17;5.57;;;;;;;15.47;100.00;96749.69;7401406;19;20378;-89
2023/07/07 06:06:09;;;;;;;6.77;6.07;;;;;;;15.59;100.00;96730.16;7404433;19;20387;-89
2023/07/07 06:08:39;;;;;;;6.03;5.53;;;;;;;16.04;100.00;96776.84;7416997;19;20427;-89
2023/07/07 06:11:07;;;;;;;11.17;6.27;;;;;;;16.12;100.00;96725.16;7417944;19;20409;-89
2023/07/07 06:13:34;;;;;;;7.50;5.90;;;;;;;16.36;100.00;96724.88;7419097;19;20391;-89
2023/07/07 06:16:01;;;;;;;6.27;5.50;;;;;;;17.00;100.00;96776.75;7415079;19;20780;-89
2023/07/07 06:18:28;;;;;;;5.33;4.83;;;;;;;16.60;100.00;96648.25;7417885;19;20443;-88
2023/07/07 06:21:00;;;;;;;6.33;5.73;;;;;;;17.55;100.00;96785.25;7418919;19;20376;-88
2023/07/07 06:23:30;;;;;;;4.83;4.33;;;;;;;17.30;100.00;96730.66;7402090;19;20402;-88
2023/07/07 06:25:57;;;;;;;5.60;4.67;;;;;;;17.66;100.00;96767.47;7401733;19;20403;-88
2023/07/07 06:28:24;;;;;;;7.70;5.37;;;;;;;16.82;100.00;96701.66;7406973;19;20502;-88
2023/07/07 06:30:52;;;;;;;5.00;4.50;;;;;;;17.41;100.00;96710.97;7400744;19;20769;-88
2023/07/07 06:33:20;;;;;;;7.70;5.17;;;;;;;17.84;100.00;96794.47;7402096;19;20753;-89
2023/07/07 06:35:48;;;;;;;5.27;4.53;;;;;;;17.60;100.00;96686.00;7402219;19;20392;-89
2023/07/07 06:38:15;;;;;;;4.77;4.17;;;;;;;18.81;100.00;96775.75;7402104;19;20428;-89
2023/07/07 06:40:42;;;;;;;7.90;5.20;;;;;;;18.97;100.00;96772.84;7402065;19;20414;-89
2023/07/07 06:43:09;;;;;;;6.23;4.33;;;;;;;19.12;100.00;96800.53;7404586;19;20460;-89
2023/07/07 06:45:37;;;;;;;4.40;4.00;;;;;;;19.50;100.00;96780.53;7401600;19;20385;-88
2023/07/07 06:48:05;;;;;;;6.10;4.50;;;;;;;19.51;100.00;96757.16;7401958;19;20458;-89
2023/07/07 06:50:40;;;;;;;5.10;4.60;;;;;;;19.54;97.26;96810.06;7400785;19;20471;-89
2023/07/07 06:53:10;;;;;;;5.20;4.70;;;;;;;19.71;97.08;96793.34;7401088;19;20372;-89
2023/07/07 06:55:38;;;;;;;6.23;4.50;;;;;;;20.03;95.84;96780.88;7399912;19;20395;-89
2023/07/07 06:58:05;;;;;;;5.20;4.70;;;;;;;20.13;90.40;96805.47;7399022;19;20473;-89
2023/07/07 07:00:32;;;;;;;6.17;4.60;;;;;;;20.43;88.97;96811.38;7398623;19;20427;-89
2023/07/07 07:02:59;;;;;;;6.67;4.83;;;;;;;20.45;88.13;96822.53;7398091;19;20829;-89
2023/07/07 07:05:26;;;;;;;10.30;7.60;;;;;;;19.93;86.76;96756.66;7399177;19;20380;-90
2023/07/07 07:07:53;;;;;;;6.73;5.80;;;;;;;20.54;85.66;96808.72;7395836;19;20429;-87
2023/07/07 07:10:20;;;;;;;7.67;5.50;;;;;;;20.32;85.72;96762.19;7399400;19;20356;-88
2023/07/07 07:12:48;;;;;;;7.77;4.90;;;;;;;20.88;85.17;96826.09;7399589;19;20382;-87
2023/07/07 07:15:15;;;;;;;5.80;4.70;;;;;;;20.83;83.59;96825.69;7399652;19;20369;-90
2023/07/07 07:17:43;;;;;;;4.33;3.90;;;;;;;20.76;82.82;96823.75;7397423;19;20409;-89
2023/07/07 07:20:11;;;;;;;7.93;3.80;;;;;;;20.93;80.97;96776.56;7402199;19;20412;-89
2023/07/07 07:22:38;;;;;;;7.00;5.30;;;;;;;21.18;79.49;96763.91;7400175;19;20423;-90
2023/07/07 07:25:06;;;;;;;4.40;4.00;;;;;;;21.51;80.24;96764.69;7400711;19;20389;-90
2023/07/07 07:27:33;;;;;;;5.00;4.57;;;;;;;21.76;77.96;96807.69;7400390;19;20380;-90
2023/07/07 07:30:00;;;;;;;5.50;4.60;;;;;;;21.32;74.11;96806.19;7402421;19;20380;-89
2023/07/07 07:32:27;;;;;;;7.73;4.47;;;;;;;20.29;75.98;96712.66;7400509;19;20365;-89
2023/07/07 07:34:55;;;;;;;5.00;4.37;;;;;;;19.69;75.02;96599.75;7414571;19;20364;-89
2023/07/07 07:37:21;;;;;;;4.87;4.47;;;;;;;21.27;75.93;96813.91;7429072;19;20428;-89
2023/07/07 07:39:48;;;;;;;5.00;4.60;;;;;;;21.09;74.19;96778.88;7429500;19;20393;-89
2023/07/07 07:42:15;;;;;;;7.60;4.50;;;;;;;20.75;74.68;96690.53;7427876;19;20415;-89
2023/07/07 07:44:42;;;;;;;5.07;4.57;;;;;;;21.03;74.53;96697.81;7400615;19;20390;-89
2023/07/07 07:47:09;;;;;;;5.73;4.40;;;;;;;21.95;73.90;96820.75;7398844;19;20377;-89
2023/07/07 07:49:36;;;;;;;5.53;4.43;;;;;;;22.37;72.59;96797.56;7397055;19;20943;-89
2023/07/07 07:52:04;;;;;;;4.93;3.83;;;;;;;22.43;71.40;96831.78;7399083;19;20386;-89
2023/07/07 07:54:31;;;;;;;6.03;3.90;;;;;;;21.74;70.81;96713.84;7398591;19;20356;-89
2023/07/07 07:56:58;;;;;;;8.67;4.50;;;;;;;22.36;69.83;96769.06;7398829;19;20412;-88
2023/07/07 07:59:25;;;;;;;4.60;4.20;;;;;;;22.15;71.65;96769.91;7401107;19;20379;-88
2023/07/07 08:01:52;;;;;;;4.63;3.57;;;;;;;22.91;67.97;96806.91;7398306;19;20405;-88
2023/07/07 08:04:19;;;;;;;8.07;4.60;;;;;;;23.44;67.91;96813.09;7399600;19;20357;-87
2023/07/07 08:06:55;;;;;;;6.60;3.90;;;;;;;23.78;68.63;96829.44;7398759;19;20356;-86
2023/07/07 08:09:22;;;;;;;4.23;3.73;;;;;;;24.00;65.95;96825.34;7397813;19;20386;-87
2023/07/07 08:11:49;;;;;;;6.53;4.40;;;;;;;24.06;64.65;96844.59;7418232;19;20363;-88
2023/07/07 08:14:18;;;;;;;5.37;4.10;;;;;;;23.94;64.84;96842.41;7425563;19;20399;-88
2023/07/07 08:16:47;;;;;;;5.80;4.63;;;;;;;23.81;65.27;96834.78;7406966;19;20396;-88
2023/07/07 08:19:14;;;;;;;4.13;3.73;;;;;;;23.76;64.90;96781.19;7403170;19;20396;-87
2023/07/07 08:21:46;;;;;;;4.30;3.90;;;;;;;24.69;64.16;96845.81;7406932;19;20372;-88
2023/07/07 08:24:13;;;;;;;7.10;3.53;;;;;;;24.81;63.17;96828.25;7405778;19;20379;-87
2023/07/07 08:26:40;;;;;;;6.10;4.07;;;;;;;24.32;62.23;96825.03;7406257;19;20396;-87
2023/07/07 08:29:09;;;;;;;4.93;4.53;;;;;;;24.24;62.11;96842.44;7405335;19;20419;-87
2023/07/07 08:31:50;;;;;;;4.30;3.90;;;;;;;24.33;62.43;96786.00;7407352;19;20438;-87
2023/07/07 08:34:18;;;;;;;3.57;3.30;;;;;;;25.00;60.74;96843.88;7405204;19;20474;-88
2023/07/07 08:36:47;;;;;;;4.53;4.13;;;;;;;25.21;59.50;96848.22;7403349;19;20408;-88
2023/07/07 08:39:19;;;;;;;8.20;4.43;;;;;;;24.76;59.20;96818.66;7404357;19;20369;-88
2023/07/07 08:42:01;;;;;;;4.83;3.50;;;;;;;25.34;59.95;96826.75;7402590;19;20376;-87
2023/07/07 08:44:31;;;;;;;4.43;3.70;;;;;;;25.32;58.89;96815.56;7406855;19;20443;-87
2023/07/07 08:47:10;;;;;;;3.57;3.27;;;;;;;26.01;56.82;96859.31;7401139;19;20541;-88
2023/07/07 08:49:47;;;;;;;4.23;3.83;;;;;;;25.58;57.42;96849.97;7405644;19;20406;-88
2023/07/07 08:52:28;;;;;;;4.43;4.00;;;;;;;25.90;56.55;96838.59;7405234;19;20348;-90
2023/07/07 08:55:29;;;;;;;4.37;3.90;;;;;;;25.15;53.98;96800.38;7403945;19;20400;-90
2023/07/07 08:58:23;;;;;;;4.30;3.90;;;;;;;25.51;52.62;96863.63;7402922;19;20384;-89
2023/07/07 09:01:20;;;;;;;3.77;3.47;;;;;;;25.18;52.49;96857.16;7402786;19;20396;-89
2023/07/07 09:04:04;;;;;;;3.60;3.27;;;;;;;25.10;52.67;96852.25;7404395;19;20389;-90
2023/07/07 09:06:44;;;;;;;4.40;3.93;;;;;;;25.44;49.08;96817.69;7402963;19;20943;-89
2023/07/07 09:09:40;;;;;;;4.60;4.17;;;;;;;25.26;51.24;96861.31;7401803;19;20356;-90
2023/07/07 09:12:24;;;;;;;4.27;3.87;;;;;;;25.31;50.73;96819.44;7400999;19;20398;-89
2023/07/07 09:14:55;;;;;;;3.57;3.27;;;;;;;25.44;48.10;96823.09;7403039;19;20475;-90
2023/07/07 09:17:32;;;;;;;4.20;3.80;;;;;;;25.27;45.02;96799.78;7401157;19;20800;-88
2023/07/07 09:20:02;;;;;;;4.50;4.10;;;;;;;25.72;45.85;96831.97;7398111;19;20378;-88
2023/07/07 09:23:01;;;;;;;5.20;3.93;;;;;;;26.16;46.60;96847.81;7401558;19;20720;-88
2023/07/07 09:25:40;;;;;;;5.03;3.63;;;;;;;26.23;46.37;96838.78;7401347;19;20394;-88
2023/07/07 09:28:16;;;;;;;3.63;3.37;;;;;;;26.06;44.86;96791.09;7399945;19;20758;-88
2023/07/07 09:30:52;;;;;;;3.60;3.30;;;;;;;26.61;46.27;96814.81;7401286;19;20386;-87
2023/07/07 09:33:22;;;;;;;4.57;4.17;;;;;;;26.36;44.52;96837.00;7405679;19;20757;-88
2023/07/07 09:36:12;;;;;;;4.10;3.70;;;;;;;27.02;44.93;96855.03;7400901;19;20885;-88
2023/07/07 09:39:04;;;;;;;4.20;3.73;;;;;;;27.07;46.16;96853.78;7396733;19;20418;-88
2023/07/07 09:41:43;;;;;;;4.37;3.97;;;;;;;27.07;45.01;96859.97;7398863;19;20370;-88
2023/07/07 09:44:35;;;;;;;4.40;4.00;;;;;;;26.51;45.31;96849.09;7399314;19;20849;-87
2023/07/07 09:47:31;;;;;;;7.53;4.93;;;;;;;26.31;45.20;96817.69;7402015;19;20417;-88
2023/07/07 09:50:12;;;;;;;5.10;3.50;;;;;;;26.11;44.48;96847.53;7409344;19;20397;-92
2023/07/07 09:52:39;;;;;;;4.00;3.70;;;;;;;26.37;44.94;96849.38;7417840;19;20423;-87
2023/07/07 09:55:19;;;;;;;4.23;3.70;;;;;;;26.44;45.46;96821.34;7401059;19;20378;-88
2023/07/07 09:57:56;;;;;;;3.83;3.53;;;;;;;25.56;44.00;96759.47;7399839;19;20423;-90
2023/07/07 10:00:24;;;;;;;5.50;4.43;;;;;;;26.38;43.80;96845.50;7400090;19;20439;-90
2023/07/07 10:03:21;;;;;;;4.87;3.63;;;;;;;26.95;43.84;96857.13;7400526;19;20806;-90
2023/07/07 10:05:52;;;;;;;4.00;3.60;;;;;;;26.58;42.91;96814.88;7402275;19;20398;-89
2023/07/07 10:08:19;;;;;;;5.03;4.50;;;;;;;26.23;43.62;96807.00;7400212;19;20425;-90
2023/07/07 10:10:56;;;;;;;3.50;3.00;;;;;;;25.90;44.68;96803.38;7427494;19;20418;-90
2023/07/07 10:13:38;;;;;;;4.07;3.67;;;;;;;25.66;45.09;96810.00;7429542;19;20382;-90
2023/07/07 10:16:07;;;;;;;4.47;4.07;;;;;;;26.24;43.20;96845.75;7426508;19;20398;-90
2023/07/07 10:18:35;;;;;;;4.00;3.70;;;;;;;25.90;42.19;96832.41;7404746;19;20438;-90
2023/07/07 10:21:19;;;;;;;3.40;3.10;;;;;;;26.57;43.10;96805.97;7401591;19;20795;-90
2023/07/07 10:23:45;;;;;;;4.40;3.63;;;;;;;26.54;43.41;96771.53;7401355;19;20746;-89
2023/07/07 10:26:12;;;;;;;4.57;4.00;;;;;;;26.56;42.33;96776.53;7401021;19;20913;-89
2023/07/07 10:28:39;;;;;;;3.90;3.60;;;;;;;26.86;41.73;96795.28;7400893;19;20429;-90
2023/07/07 10:31:09;;;;;;;5.80;3.50;;;;;;;27.26;41.12;96852.19;7400769;19;20471;-89
2023/07/07 10:33:36;;;;;;;5.00;4.13;;;;;;;25.76;42.32;96744.00;7400934;19;20338;-89
2023/07/07 10:36:28;;;;;;;4.63;4.20;;;;;;;25.89;44.96;96782.88;7399979;19;20809;-88
2023/07/07 10:38:56;;;;;;;3.70;3.33;;;;;;;26.99;41.86;96846.97;7397781;19;20418;-90
2023/07/07 10:41:24;;;;;;;4.83;3.37;;;;;;;27.54;42.93;96846.09;7401574;19;20470;-90
2023/07/07 10:43:51;;;;;;;3.70;3.10;;;;;;;27.57;40.19;96850.66;7397256;19;20383;-90
2023/07/07 10:46:18;;;;;;;4.80;3.90;;;;;;;27.71;39.09;96848.81;7400767;19;20908;-90
2023/07/07 10:48:46;;;;;;;5.70;3.63;;;;;;;27.26;39.47;96793.22;7394787;19;20435;-89
2023/07/07 10:51:24;;;;;;;4.13;3.73;;;;;;;27.02;39.78;96851.56;7402389;19;20434;-90
2023/07/07 10:53:58;;;;;;;3.87;3.57;;;;;;;27.74;40.60;96848.72;7415627;19;20734;-90
2023/07/07 10:56:53;;;;;;;3.43;3.13;;;;;;;27.89;40.04;96827.38;7402775;19;20359;-90
2023/07/07 10:59:52;;;;;;;4.23;3.83;;;;;;;27.72;39.51;96820.44;7401370;19;20392;-90
2023/07/07 11:02:53;;;;;;;3.80;3.40;;;;;;;27.01;39.43;96768.59;7401091;19;20709;-90
2023/07/07 11:05:34;;;;;;;4.00;3.70;;;;;;;27.02;39.03;96797.28;7402699;19;20375;-91
2023/07/07 11:08:28;;;;;;;4.90;4.10;;;;;;;27.87;38.51;96830.53;7395172;19;20790;-89
2023/07/07 11:11:17;;;;;;;4.83;3.80;;;;;;;27.14;38.77;96839.28;7410062;19;20372;-89
2023/07/07 11:13:57;;;;;;;6.83;4.43;;;;;;;27.37;39.31;96836.41;7409796;19;20383;-90
2023/07/07 11:17:05;;;;;;;5.00;3.20;;;;;;;27.75;39.77;96827.75;7400163;19;20367;-90
2023/07/07 11:19:50;;;;;;;3.83;3.00;;;;;;;27.71;39.14;96827.09;7400581;19;20427;-90
2023/07/07 11:22:33;;;;;;;5.67;3.50;;;;;;;27.60;39.84;96821.88;7415224;19;20363;-90
2023/07/07 11:25:15;;;;;;;3.53;3.23;;;;;;;27.76;39.30;96802.09;7432658;19;20394;-84
2023/07/07 11:28:08;;;;;;;4.00;3.70;;;;;;;27.98;39.11;96813.94;7417343;19;20506;-90
2023/07/07 11:30:57;;;;;;;6.23;3.20;;;;;;;28.31;37.74;96817.34;7395284;19;20447;-90
2023/07/07 11:33:50;;;;;;;6.20;3.53;;;;;;;27.59;38.54;96766.00;7403282;19;20380;-90
2023/07/07 11:36:38;;;;;;;4.17;3.60;;;;;;;27.79;41.34;96809.41;7402974;19;20380;-90
2023/07/07 11:39:28;;;;;;;3.83;3.40;;;;;;;27.75;39.05;96776.09;7401420;19;20395;-90
2023/07/07 11:42:18;;;;;;;3.77;3.00;;;;;;;28.72;37.50;96819.28;7402641;19;20400;-90
2023/07/07 11:45:14;;;;;;;5.23;3.33;;;;;;;28.87;37.16;96813.41;7400311;19;20919;-91
2023/07/07 11:48:15;;;;;;;3.80;3.47;;;;;;;29.32;37.28;96819.41;7413905;19;20434;-91
2023/07/07 11:51:15;;;;;;;4.03;3.73;;;;;;;29.36;36.72;96809.16;7419881;19;20391;-88